Flight Track Log - Related Links

Times and Time Zones

All times are in EDT time to prevent confusion due to time zone crossing. See the SWA3584 flight status page for this flight to view local times or setup timezone preferences in your user account.

Time Position Orientation Groundspeed Altitude Reporting Facility
EDT Latitude Longitude Course Direction KTS km/h feet Rate Location/Type
Fri 08:12:46 28.4167 -81.3000 147° Southeast 148 274 700  Level Orlando TRACON
Fri 08:14:10 28.3500 -81.2500 147° Southeast 216 401 3.400 1.792 Climbing Orlando TRACON
Fri 08:15:10 28.3167 -81.1833 120° Southeast 284 526 5.000 1.905 Climbing Orlando TRACON
Fri 08:16:16 28.3500 -81.1000 66° East 312 578 7.400 2.238 Climbing Orlando TRACON
Fri 08:17:16 28.4333 -81.1167 350° North 308 570 9.700 2.235 Climbing Orlando TRACON
Fri 08:19:40 28.6314 -81.1992 340° North 326 604 15.000 2.324 Climbing Jacksonville Center
Fri 08:20:40 28.7236 -81.2378 340° North 337 624 17.600 2.750 Climbing Jacksonville Center
Fri 08:21:40 28.8158 -81.2742 341° North 342 634 20.500 2.200 Climbing Jacksonville Center
Fri 08:22:40 28.9103 -81.3128 340° North 347 642 22.000 1.650 Climbing Jacksonville Center
Fri 08:23:40 29.0131 -81.3564 340° North 367 679 23.800 1.800 Climbing Jacksonville Center
Fri 08:24:40 29.1178 -81.3903 344° North 380 703 25.600 1.600 Climbing Jacksonville Center
Fri 08:25:40 29.2308 -81.4053 353° North 397 735 27.000 1.550 Climbing Jacksonville Center
Fri 08:26:40 29.3497 -81.4106 358° North 410 760 28.700 1.550 Climbing Jacksonville Center
Fri 08:27:40 29.4833 -81.4111 360° North 427 790 30.100 1.550 Climbing Jacksonville Center
Fri 08:28:40 29.6025 -81.4139 359° North 427 790 31.800 1.550 Climbing Jacksonville Center
Fri 08:29:40 29.7236 -81.4147 360° North 427 790 33.200 1.150 Climbing Jacksonville Center
Fri 08:30:40 29.8467 -81.4175 359° North 427 790 34.100 1.100 Climbing Jacksonville Center
Fri 08:31:40 29.9717 -81.3989 North 437 810 35.400 1.200 Climbing Jacksonville Center
Fri 08:32:40 30.0989 -81.3753 North 444 822 36.500 800 Climbing Jacksonville Center
Fri 08:33:40 30.2239 -81.3564 North 444 822 37.000 250 Climbing Jacksonville Center
Fri 08:34:40 30.3508 -81.3353 North 449 832 37.000  Level Jacksonville Center
Fri 08:35:40 30.4781 -81.3139 North 449 832 37.000  Level Jacksonville Center
Fri 08:36:40 30.6072 -81.2947 North 454 840 37.000  Level Jacksonville Center
Fri 08:37:40 30.7344 -81.2733 North 459 850 37.000  Level Jacksonville Center
Fri 08:38:40 30.8614 -81.2517 North 459 850 37.000  Level Jacksonville Center
Fri 08:39:40 30.9864 -81.2328 North 459 850 37.000  Level Jacksonville Center
Fri 08:40:40 31.1136 -81.2108 North 457 847 37.000  Level Jacksonville Center
Fri 08:41:40 31.2406 -81.1917 North 457 847 37.000  Level Jacksonville Center
Fri 08:42:40 31.3653 -81.1481 17° North 459 850 37.000  Level Jacksonville Center
Fri 08:43:40 31.4811 -81.0656 31° Northeast 480 888 37.000  Level Jacksonville Center
Fri 08:44:40 31.5864 -80.9903 31° Northeast 485 898 37.000  Level Jacksonville Center
Fri 08:45:40 31.7125 -80.8997 31° Northeast 480 888 37.000  Level Jacksonville Center
Fri 08:46:40 31.8178 -80.8267 31° Northeast 486 900 37.000  Level Jacksonville Center
Fri 08:47:40 31.9436 -80.7333 32° Northeast 480 888 37.000  Level Jacksonville Center
Fri 08:48:40 32.0592 -80.6519 31° Northeast 480 888 37.000  Level Jacksonville Center
Fri 08:49:40 32.1622 -80.5783 31° Northeast 480 888 37.000  Level Jacksonville Center
Fri 08:50:40 32.2753 -80.4919 33° Northeast 480 888 37.000  Level Jacksonville Center
Fri 08:51:40 32.3906 -80.4078 32° Northeast 480 888 37.000  Level Jacksonville Center
Fri 08:52:40 32.5058 -80.3258 31° Northeast 480 888 37.000  Level Jacksonville Center
Fri 08:53:40 32.6208 -80.2386 33° Northeast 480 888 37.000  Level Jacksonville Center
Fri 08:54:40 32.7208 -80.1294 43° Northeast 485 898 37.000  Level Jacksonville Center
Fri 08:55:40 32.8272 -80.0300 38° Northeast 485 898 37.000  Level Jacksonville Center
Fri 08:56:40 32.9333 -79.9300 38° Northeast 485 898 37.000  Level Jacksonville Center
Fri 08:57:40 33.0397 -79.8347 37° Northeast 485 898 37.000  Level Jacksonville Center
Fri 08:58:40 33.1458 -79.7369 38° Northeast 479 887 37.000  Level Jacksonville Center
Fri 08:59:40 33.2500 -79.6414 37° Northeast 479 887 37.000 -50 Level Jacksonville Center
Fri 09:00:40 33.3539 -79.5456 38° Northeast 473 875 36.900  Descending Jacksonville Center
Fri 09:01:40 33.4556 -79.4497 38° Northeast 473 875 37.000 50 Climbing Jacksonville Center
Fri 09:02:40 33.5594 -79.3533 38° Northeast 473 875 37.000  Level Jacksonville Center
Fri 09:03:40 33.6631 -79.2569 38° Northeast 473 875 37.000  Level Jacksonville Center
Fri 09:04:40 33.7606 -79.1681 37° Northeast 464 859 37.000  Level Jacksonville Center
Fri 09:05:40 33.8619 -79.0711 38° Northeast 459 850 37.000  Level Jacksonville Center
Fri 09:07:12 34.0211 -78.9217 38° Northeast 451 835 37.000  Level Washington Center
Fri 09:08:12 34.1219 -78.8253 38° Northeast 457 847 37.000  Level Washington Center
Fri 09:09:12 34.2247 -78.7289 38° Northeast 457 847 37.000  Level Washington Center
Fri 09:10:12 34.3272 -78.6322 38° Northeast 457 847 37.000  Level Washington Center
Fri 09:11:12 34.4386 -78.5206 40° Northeast 462 856 37.000  Level Washington Center
Fri 09:12:12 34.5392 -78.4183 40° Northeast 462 856 37.000  Level Washington Center
Fri 09:13:12 34.6417 -78.3133 40° Northeast 467 864 37.000  Level Washington Center
Fri 09:14:12 34.7439 -78.2131 39° Northeast 467 864 37.000  Level Washington Center
Fri 09:15:12 34.8339 -78.1097 43° Northeast 473 875 37.000  Level Washington Center
Fri 09:16:12 34.9361 -78.0064 40° Northeast 473 875 37.000  Level Washington Center
Fri 09:17:12 35.0406 -77.8981 40° Northeast 473 875 37.000 -350 Level Washington Center
Fri 09:18:12 35.1447 -77.7917 40° Northeast 483 895 36.300 -800 Descending Washington Center
Fri 09:19:12 35.2489 -77.6853 40° Northeast 483 895 35.400 -950 Descending Washington Center
Fri 09:20:12 35.3653 -77.5864 35° Northeast 496 919 34.400 -200 Descending Washington Center
Fri 09:21:12 35.4817 -77.4975 32° Northeast 496 919 35.000 300 Climbing Washington Center
Fri 09:22:12 35.5956 -77.4108 32° Northeast 486 900 35.000  Level Washington Center
Fri 09:23:12 35.7094 -77.3239 32° Northeast 486 900 35.000  Level Washington Center
Fri 09:24:12 35.8319 -77.2342 31° Northeast 486 900 35.000  Level Washington Center
Fri 09:25:12 35.9500 -77.1417 32° Northeast 491 909 35.000  Level Washington Center
Fri 09:26:12 36.0617 -77.0514 33° Northeast 491 909 35.000  Level Washington Center
Fri 09:27:12 36.1794 -76.9636 31° Northeast 491 909 35.000  Level Washington Center
Fri 09:28:12 36.2911 -76.8753 33° Northeast 486 900 35.000  Level Washington Center
Fri 09:29:12 36.4067 -76.7869 32° Northeast 486 900 35.000  Level Washington Center
Fri 09:30:12 36.5222 -76.6981 32° Northeast 486 900 35.000  Level Washington Center
Fri 09:31:12 36.6358 -76.6092 32° Northeast 486 900 35.000  Level Washington Center
Fri 09:32:12 36.7492 -76.5172 33° Northeast 486 900 35.000  Level Washington Center
Fri 09:33:12 36.8625 -76.4253 33° Northeast 486 900 35.000 -350 Level Washington Center
Fri 09:34:12 36.9778 -76.3328 33° Northeast 486 900 34.300 -850 Descending Washington Center
Fri 09:35:12 37.0931 -76.2428 32° Northeast 486 900 33.300 -1.050 Descending Washington Center
Fri 09:36:12 37.2208 -76.1475 31° Northeast 491 909 32.200 -1.050 Descending Washington Center
Fri 09:37:12 37.3339 -76.0567 33° Northeast 491 909 31.200 -600 Descending Washington Center
Fri 09:38:12 37.4467 -75.9658 33° Northeast 486 900 31.000 -100 Descending Washington Center
Fri 09:39:12 37.5597 -75.8775 32° Northeast 481 892 31.000  Level Washington Center
Fri 09:40:12 37.6744 -75.7861 32° Northeast 481 892 31.000  Level Washington Center
Fri 09:41:12 37.7894 -75.6889 34° Northeast 481 892 31.000 -750 Level Washington Center
Fri 09:42:12 37.9019 -75.5969 33° Northeast 481 892 29.500 -1.000 Descending Washington Center
Fri 09:43:12 38.0167 -75.4994 34° Northeast 486 900 29.000 -250 Descending Washington Center
Fri 09:44:12 38.1397 -75.4175 28° Northeast 486 900 29.000 -950 Level Washington Center
Fri 09:45:12 38.2625 -75.3406 26° Northeast 486 900 27.100 -2.200 Descending Washington Center
Fri 09:46:12 38.3833 -75.2606 27° Northeast 486 900 24.600 -2.550 Descending Washington Center
Fri 09:47:12 38.4997 -75.1858 27° Northeast 474 877 22.000 -2.550 Descending Washington Center
Fri 09:48:12 38.6119 -75.1108 28° Northeast 457 847 19.500 -2.600 Descending Washington Center
Fri 09:49:12 38.7203 -75.0489 24° Northeast 439 813 16.800 -2.300 Descending Washington Center
Fri 09:50:12 38.8242 -74.9789 28° Northeast 426 789 14.900 -900 Descending Washington Center
Fri 09:51:12 38.9178 -74.9381 19° North 405 750 15.000 -100 Climbing Washington Center
Fri 09:52:12 39.0386 -74.9394 359° North 388 719 14.700 -1.482 Descending Washington Center
Fri 09:54:02 39.2306 -74.9514 357° North 376 697 10.800 -2.031 Descending FAA TRACON SMA TRACON (SMA)
Fri 09:54:22 39.2628 -74.9531 358° North 374 692 10.300 -1.050 Descending FAA TRACON SMA TRACON (SMA)
Fri 09:54:42 39.3011 -74.9544 358° North 362 671 10.100 -750 Descending FAA TRACON SMA TRACON (SMA)
Fri 09:55:02 39.3283 -74.9550 359° North 334 618 9.800 -1.500 Descending FAA TRACON SMA TRACON (SMA)
Fri 09:55:22 39.3572 -74.9586 354° North 328 607 9.100 -1.100 Descending FAA TRACON SMA TRACON (SMA)
Fri 09:56:02 39.4203 -74.9614 358° North 325 602 8.700 -700 Descending FAA TRACON SMA TRACON (SMA)
Fri 09:56:22 39.4483 -74.9622 359° North 326 604 8.400 -1.050 Descending FAA TRACON SMA TRACON (SMA)
Fri 09:56:42 39.4836 -74.9644 357° North 327 605 8.000 -600 Descending FAA TRACON SMA TRACON (SMA)
Fri 09:57:02 39.5094 -74.9700 351° North 302 560 8.000  Level FAA TRACON SMA TRACON (SMA)
Fri 09:57:22 39.5319 -74.9936 321° Northwest 282 523 8.000 -150 Level FAA TRACON SMA TRACON (SMA)
Fri 09:57:42 39.5414 -75.0211 294° West 270 501 7.900 -600 Descending FAA TRACON SMA TRACON (SMA)
Fri 09:58:02 39.5439 -75.0475 277° West 236 438 7.600 -1.050 Descending FAA TRACON SMA TRACON (SMA)
Fri 09:58:22 39.5458 -75.0744 275° West 240 444 7.200 -900 Descending FAA TRACON SMA TRACON (SMA)
Fri 09:58:42 39.5486 -75.1067 276° West 233 431 7.000 -300 Descending FAA TRACON SMA TRACON (SMA)
Fri 09:59:02 39.5564 -75.1308 293° West 249 462 7.000  Level FAA TRACON SMA TRACON (SMA)
Fri 09:59:22 39.5714 -75.1531 311° West 259 480 7.000  Level FAA TRACON SMA TRACON (SMA)
Fri 09:59:42 39.5914 -75.1794 315° West 273 505 7.000 -450 Level FAA TRACON SMA TRACON (SMA)
Fri 10:00:02 39.6081 -75.2008 315° West 273 505 6.700 -750 Descending FAA TRACON SMA TRACON (SMA)
Fri 10:00:22 39.6239 -75.2222 314° West 268 496 6.500 -500 Descending FAA TRACON SMA TRACON (SMA)
Fri 10:01:02 39.6611 -75.2617 321° Northwest 260 481 6.200 -500 Descending FAA TRACON SMA TRACON (SMA)
Fri 10:01:22 39.6844 -75.2653 353° North 269 499 6.000 -300 Descending FAA TRACON SMA TRACON (SMA)
Fri 10:01:42 39.7114 -75.2656 360° North 253 468 6.000  Level FAA TRACON SMA TRACON (SMA)
Fri 10:02:02 39.7319 -75.2650 North 245 454 6.000  Level FAA TRACON SMA TRACON (SMA)
Fri 10:02:22 39.7494 -75.2725 342° North 216 401 6.000  Level FAA TRACON SMA TRACON (SMA)
Fri 10:02:42 39.7536 -75.2900 287° West 164 304 6.000  Level FAA TRACON SMA TRACON (SMA)
Fri 10:03:02 39.7486 -75.3108 253° West 157 291 6.000 -750 Level FAA TRACON SMA TRACON (SMA)
Fri 10:03:22 39.7444 -75.3267 251° West 155 286 5.500 -1.350 Descending FAA TRACON SMA TRACON (SMA)
Fri 10:03:42 39.7397 -75.3433 250° West 156 290 5.100 -1.200 Descending FAA TRACON SMA TRACON (SMA)
Fri 10:04:02 39.7339 -75.3642 250° West 157 291 4.700 -1.050 Descending FAA TRACON SMA TRACON (SMA)
Fri 10:04:22 39.7294 -75.3797 250° West 154 285 4.400 -900 Descending FAA TRACON SMA TRACON (SMA)
Fri 10:04:42 39.7303 -75.3964 274° West 152 282 4.100 -750 Descending FAA TRACON SMA TRACON (SMA)
Fri 10:05:02 39.7356 -75.4167 289° West 153 283 3.900 -750 Descending FAA TRACON SMA TRACON (SMA)
Fri 10:05:22 39.7397 -75.4328 289° West 156 290 3.600 -900 Descending FAA TRACON SMA TRACON (SMA)
Fri 10:05:42 39.7442 -75.4497 289° West 158 293 3.300 -900 Descending FAA TRACON SMA TRACON (SMA)
Fri 10:06:02 39.7497 -75.4714 288° West 161 298 3.000 -450 Descending FAA TRACON SMA TRACON (SMA)
Fri 10:06:22 39.7569 -75.4878 300° West 177 328 3.000  Level FAA TRACON SMA TRACON (SMA)
Fri 10:06:42 39.7717 -75.4964 336° Northwest 187 346 3.000  Level FAA TRACON SMA TRACON (SMA)
Fri 10:07:02 39.7906 -75.5069 337° Northwest 177 328 3.000  Level FAA TRACON SMA TRACON (SMA)
Fri 10:07:22 39.8075 -75.5053 North 212 393 3.000  Level FAA TRACON SMA TRACON (SMA)
Fri 10:07:42 39.8169 -75.4844 59° Northeast 210 389 3.000  Level FAA TRACON SMA TRACON (SMA)
Fri 10:08:02 39.8242 -75.4583 70° East 206 381 3.000 -450 Level FAA TRACON SMA TRACON (SMA)
Fri 10:08:22 39.8286 -75.4367 75° East 202 373 2.700 -1.200 Descending FAA TRACON SMA TRACON (SMA)
Fri 10:08:42 39.8325 -75.4150 77° East 201 372 2.200 -1.171 Descending FAA TRACON SMA TRACON (SMA)
Fri 10:09:03 39.8378 -75.3900 75° East 199 369 1.900 -878 Descending FAA TRACON SMA TRACON (SMA)
Fri 10:09:23 39.8417 -75.3697 76° East 177 328 1.600 -900 Descending FAA TRACON SMA TRACON (SMA)
Fri 10:09:43 39.8450 -75.3539 75° East 152 282 1.300 -900 Descending FAA TRACON SMA TRACON (SMA)
Fri 10:10:03 39.8483 -75.3361 76° East 121 224 1.000 -615 Descending FAA TRACON SMA TRACON (SMA)
Fri 10:10:22 39.8511 -75.3225 75° East 126 233 900 -615 Descending FAA TRACON SMA TRACON (SMA)
Fri 10:10:42 39.8539 -75.3094 75° East 122 225 600 -750 Descending FAA TRACON SMA TRACON (SMA)
Fri 10:11:02 39.8569 -75.2936 76° East 120 222 400 -600 Descending FAA TRACON SMA TRACON (SMA)
Fri 10:11:22 39.8597 -75.2803 75° East 121 224 200 -439 Descending FAA TRACON SMA TRACON (SMA)
Fri 10:11:43 39.8597 -75.2803 75° East 121 224 100 -286 Descending FAA TRACON SMA TRACON (SMA)

Login

Don't have an account? Register now (free) for customized features, flight alerts, and more!